sensor_id;sensor_type;location;lat;lon;timestamp;P1;durP1;ratioP1;P2;durP2;ratioP2
9208;SDS011;4639;48.862;9.188;2023-12-28T00:01:35;122.85;;;115.25;;
9208;SDS011;4639;48.862;9.188;2023-12-28T00:04:01;178.38;;;167.43;;
9208;SDS011;4639;48.862;9.188;2023-12-28T00:06:27;139.00;;;130.55;;
9208;SDS011;4639;48.862;9.188;2023-12-28T00:08:52;250.23;;;234.23;;
9208;SDS011;4639;48.862;9.188;2023-12-28T00:11:27;290.23;;;271.80;;
9208;SDS011;4639;48.862;9.188;2023-12-28T00:13:53;250.75;;;235.00;;
9208;SDS011;4639;48.862;9.188;2023-12-28T00:16:18;234.25;;;219.02;;
9208;SDS011;4639;48.862;9.188;2023-12-28T00:18:44;182.48;;;170.77;;
9208;SDS011;4639;48.862;9.188;2023-12-28T00:21:09;203.60;;;190.60;;
9208;SDS011;4639;48.862;9.188;2023-12-28T00:23:35;155.07;;;145.77;;
9208;SDS011;4639;48.862;9.188;2023-12-28T00:26:01;193.57;;;182.25;;
9208;SDS011;4639;48.862;9.188;2023-12-28T00:28:26;202.27;;;190.32;;
9208;SDS011;4639;48.862;9.188;2023-12-28T00:30:52;235.07;;;221.55;;
9208;SDS011;4639;48.862;9.188;2023-12-28T00:33:17;257.52;;;241.95;;
9208;SDS011;4639;48.862;9.188;2023-12-28T00:35:43;238.75;;;223.48;;
9208;SDS011;4639;48.862;9.188;2023-12-28T00:38:08;247.80;;;230.70;;
9208;SDS011;4639;48.862;9.188;2023-12-28T00:40:34;228.27;;;212.20;;
9208;SDS011;4639;48.862;9.188;2023-12-28T00:42:59;266.60;;;247.57;;
9208;SDS011;4639;48.862;9.188;2023-12-28T00:45:25;249.85;;;231.57;;
9208;SDS011;4639;48.862;9.188;2023-12-28T00:47:50;307.95;;;284.63;;
9208;SDS011;4639;48.862;9.188;2023-12-28T00:50:17;317.63;;;297.25;;
9208;SDS011;4639;48.862;9.188;2023-12-28T00:52:42;299.15;;;279.75;;
9208;SDS011;4639;48.862;9.188;2023-12-28T00:55:08;330.23;;;308.20;;
9208;SDS011;4639;48.862;9.188;2023-12-28T00:57:36;283.38;;;265.52;;
9208;SDS011;4639;48.862;9.188;2023-12-28T01:00:01;285.95;;;267.13;;
9208;SDS011;4639;48.862;9.188;2023-12-28T01:02:27;277.90;;;260.85;;
9208;SDS011;4639;48.862;9.188;2023-12-28T01:04:53;327.83;;;305.20;;
9208;SDS011;4639;48.862;9.188;2023-12-28T01:07:18;288.27;;;270.48;;
9208;SDS011;4639;48.862;9.188;2023-12-28T01:09:44;267.58;;;250.90;;
9208;SDS011;4639;48.862;9.188;2023-12-28T01:12:10;264.27;;;248.23;;
9208;SDS011;4639;48.862;9.188;2023-12-28T01:14:35;287.95;;;269.30;;
9208;SDS011;4639;48.862;9.188;2023-12-28T01:17:01;291.75;;;272.10;;
9208;SDS011;4639;48.862;9.188;2023-12-28T01:19:26;284.90;;;265.90;;
9208;SDS011;4639;48.862;9.188;2023-12-28T01:21:52;294.85;;;274.50;;
9208;SDS011;4639;48.862;9.188;2023-12-28T01:24:17;295.77;;;276.88;;
9208;SDS011;4639;48.862;9.188;2023-12-28T01:26:43;281.08;;;262.48;;
9208;SDS011;4639;48.862;9.188;2023-12-28T01:29:09;289.75;;;270.58;;
9208;SDS011;4639;48.862;9.188;2023-12-28T01:31:35;292.02;;;272.05;;
9208;SDS011;4639;48.862;9.188;2023-12-28T01:34:00;299.08;;;278.83;;
9208;SDS011;4639;48.862;9.188;2023-12-28T01:36:26;284.55;;;265.42;;
9208;SDS011;4639;48.862;9.188;2023-12-28T01:38:54;277.67;;;258.27;;
9208;SDS011;4639;48.862;9.188;2023-12-28T01:41:20;303.25;;;282.50;;
9208;SDS011;4639;48.862;9.188;2023-12-28T01:43:45;284.35;;;264.55;;
9208;SDS011;4639;48.862;9.188;2023-12-28T01:46:17;304.48;;;283.23;;
9208;SDS011;4639;48.862;9.188;2023-12-28T01:48:46;273.27;;;253.45;;
9208;SDS011;4639;48.862;9.188;2023-12-28T01:51:15;288.20;;;267.25;;
9208;SDS011;4639;48.862;9.188;2023-12-28T01:53:41;306.85;;;285.35;;
9208;SDS011;4639;48.862;9.188;2023-12-28T01:56:08;299.83;;;279.15;;
9208;SDS011;4639;48.862;9.188;2023-12-28T01:58:34;323.50;;;300.55;;
9208;SDS011;4639;48.862;9.188;2023-12-28T02:01:01;315.30;;;293.73;;
9208;SDS011;4639;48.862;9.188;2023-12-28T02:03:27;294.95;;;275.63;;
9208;SDS011;4639;48.862;9.188;2023-12-28T02:05:54;312.05;;;291.25;;
9208;SDS011;4639;48.862;9.188;2023-12-28T02:08:20;316.42;;;294.55;;
9208;SDS011;4639;48.862;9.188;2023-12-28T02:10:45;319.67;;;295.75;;
9208;SDS011;4639;48.862;9.188;2023-12-28T02:13:11;368.30;;;339.33;;
9208;SDS011;4639;48.862;9.188;2023-12-28T02:15:37;313.30;;;292.10;;
9208;SDS011;4639;48.862;9.188;2023-12-28T02:18:09;314.35;;;293.83;;
9208;SDS011;4639;48.862;9.188;2023-12-28T02:20:38;308.60;;;287.88;;
9208;SDS011;4639;48.862;9.188;2023-12-28T02:23:05;331.88;;;308.75;;
9208;SDS011;4639;48.862;9.188;2023-12-28T02:25:31;317.98;;;296.13;;
9208;SDS011;4639;48.862;9.188;2023-12-28T02:27:57;299.75;;;279.60;;
9208;SDS011;4639;48.862;9.188;2023-12-28T02:30:23;289.90;;;271.35;;
9208;SDS011;4639;48.862;9.188;2023-12-28T02:33:24;333.83;;;310.58;;
9208;SDS011;4639;48.862;9.188;2023-12-28T02:36:09;286.52;;;268.13;;
9208;SDS011;4639;48.862;9.188;2023-12-28T02:38:37;302.67;;;282.27;;
9208;SDS011;4639;48.862;9.188;2023-12-28T02:41:04;312.98;;;292.50;;
9208;SDS011;4639;48.862;9.188;2023-12-28T02:43:30;269.98;;;252.23;;
9208;SDS011;4639;48.862;9.188;2023-12-28T02:45:56;310.33;;;289.58;;
9208;SDS011;4639;48.862;9.188;2023-12-28T02:48:22;305.30;;;285.63;;
9208;SDS011;4639;48.862;9.188;2023-12-28T02:50:48;284.17;;;266.05;;
9208;SDS011;4639;48.862;9.188;2023-12-28T02:53:14;354.30;;;328.45;;
9208;SDS011;4639;48.862;9.188;2023-12-28T02:55:39;320.25;;;298.95;;
9208;SDS011;4639;48.862;9.188;2023-12-28T02:58:05;331.77;;;308.70;;
9208;SDS011;4639;48.862;9.188;2023-12-28T03:00:30;322.83;;;299.63;;
9208;SDS011;4639;48.862;9.188;2023-12-28T03:02:56;329.02;;;304.60;;
9208;SDS011;4639;48.862;9.188;2023-12-28T03:05:21;316.65;;;295.33;;
9208;SDS011;4639;48.862;9.188;2023-12-28T03:07:47;304.45;;;284.98;;
9208;SDS011;4639;48.862;9.188;2023-12-28T03:10:13;319.42;;;297.10;;
9208;SDS011;4639;48.862;9.188;2023-12-28T03:12:38;299.30;;;279.85;;
9208;SDS011;4639;48.862;9.188;2023-12-28T03:15:04;299.23;;;279.80;;
9208;SDS011;4639;48.862;9.188;2023-12-28T03:17:30;330.13;;;307.70;;
9208;SDS011;4639;48.862;9.188;2023-12-28T03:19:58;319.20;;;298.25;;
9208;SDS011;4639;48.862;9.188;2023-12-28T03:22:24;288.45;;;269.75;;
9208;SDS011;4639;48.862;9.188;2023-12-28T03:24:49;309.50;;;288.65;;
9208;SDS011;4639;48.862;9.188;2023-12-28T03:27:15;284.98;;;266.55;;
9208;SDS011;4639;48.862;9.188;2023-12-28T03:29:41;293.48;;;274.48;;
9208;SDS011;4639;48.862;9.188;2023-12-28T03:32:08;274.80;;;257.33;;
9208;SDS011;4639;48.862;9.188;2023-12-28T03:34:33;266.77;;;249.82;;
9208;SDS011;4639;48.862;9.188;2023-12-28T03:37:00;274.83;;;258.02;;
9208;SDS011;4639;48.862;9.188;2023-12-28T03:39:26;309.17;;;288.40;;
9208;SDS011;4639;48.862;9.188;2023-12-28T03:41:51;315.65;;;293.98;;
9208;SDS011;4639;48.862;9.188;2023-12-28T03:44:20;335.05;;;311.20;;
9208;SDS011;4639;48.862;9.188;2023-12-28T03:46:47;321.75;;;299.25;;
9208;SDS011;4639;48.862;9.188;2023-12-28T03:49:22;316.52;;;294.38;;
9208;SDS011;4639;48.862;9.188;2023-12-28T03:51:49;304.05;;;282.98;;
9208;SDS011;4639;48.862;9.188;2023-12-28T03:54:16;291.70;;;271.13;;
9208;SDS011;4639;48.862;9.188;2023-12-28T03:56:42;258.90;;;238.02;;
9208;SDS011;4639;48.862;9.188;2023-12-28T03:59:08;261.58;;;242.60;;
9208;SDS011;4639;48.862;9.188;2023-12-28T04:01:34;293.83;;;273.10;;
9208;SDS011;4639;48.862;9.188;2023-12-28T04:04:00;302.42;;;281.05;;
9208;SDS011;4639;48.862;9.188;2023-12-28T04:06:26;280.13;;;259.25;;
9208;SDS011;4639;48.862;9.188;2023-12-28T04:08:51;258.05;;;239.35;;
9208;SDS011;4639;48.862;9.188;2023-12-28T04:11:17;294.52;;;271.70;;
9208;SDS011;4639;48.862;9.188;2023-12-28T04:13:43;205.65;;;191.23;;
9208;SDS011;4639;48.862;9.188;2023-12-28T04:16:11;242.68;;;224.35;;
9208;SDS011;4639;48.862;9.188;2023-12-28T04:18:38;207.10;;;192.70;;
9208;SDS011;4639;48.862;9.188;2023-12-28T04:21:03;189.75;;;177.02;;
9208;SDS011;4639;48.862;9.188;2023-12-28T04:23:29;232.93;;;217.60;;
9208;SDS011;4639;48.862;9.188;2023-12-28T04:25:54;167.18;;;156.90;;
9208;SDS011;4639;48.862;9.188;2023-12-28T04:28:20;251.20;;;233.10;;
9208;SDS011;4639;48.862;9.188;2023-12-28T04:30:45;221.85;;;206.55;;
9208;SDS011;4639;48.862;9.188;2023-12-28T04:33:11;208.25;;;194.48;;
9208;SDS011;4639;48.862;9.188;2023-12-28T04:35:36;254.77;;;237.85;;
9208;SDS011;4639;48.862;9.188;2023-12-28T04:38:02;128.13;;;120.50;;
9208;SDS011;4639;48.862;9.188;2023-12-28T04:40:28;169.73;;;159.32;;
9208;SDS011;4639;48.862;9.188;2023-12-28T04:42:53;202.98;;;189.18;;
9208;SDS011;4639;48.862;9.188;2023-12-28T04:45:19;143.07;;;134.32;;
9208;SDS011;4639;48.862;9.188;2023-12-28T04:47:45;144.60;;;135.75;;
9208;SDS011;4639;48.862;9.188;2023-12-28T04:50:11;132.32;;;124.32;;
9208;SDS011;4639;48.862;9.188;2023-12-28T04:52:36;137.50;;;129.25;;
9208;SDS011;4639;48.862;9.188;2023-12-28T04:55:02;122.65;;;115.32;;
9208;SDS011;4639;48.862;9.188;2023-12-28T04:57:28;116.05;;;109.07;;
9208;SDS011;4639;48.862;9.188;2023-12-28T04:59:54;134.07;;;125.90;;
9208;SDS011;4639;48.862;9.188;2023-12-28T05:02:19;151.38;;;141.93;;
9208;SDS011;4639;48.862;9.188;2023-12-28T05:04:45;147.70;;;138.73;;
9208;SDS011;4639;48.862;9.188;2023-12-28T05:07:11;146.18;;;137.38;;
9208;SDS011;4639;48.862;9.188;2023-12-28T05:09:36;163.90;;;153.73;;
9208;SDS011;4639;48.862;9.188;2023-12-28T05:12:02;144.50;;;135.55;;
9208;SDS011;4639;48.862;9.188;2023-12-28T05:14:28;142.90;;;134.15;;
9208;SDS011;4639;48.862;9.188;2023-12-28T05:16:54;140.63;;;132.05;;
9208;SDS011;4639;48.862;9.188;2023-12-28T05:19:19;138.77;;;130.32;;
9208;SDS011;4639;48.862;9.188;2023-12-28T05:21:45;159.35;;;149.27;;
9208;SDS011;4639;48.862;9.188;2023-12-28T05:24:11;187.05;;;175.57;;
9208;SDS011;4639;48.862;9.188;2023-12-28T05:26:37;168.60;;;158.15;;
9208;SDS011;4639;48.862;9.188;2023-12-28T05:29:05;211.05;;;197.93;;
9208;SDS011;4639;48.862;9.188;2023-12-28T05:31:31;237.63;;;223.13;;
9208;SDS011;4639;48.862;9.188;2023-12-28T05:33:56;253.55;;;237.35;;
9208;SDS011;4639;48.862;9.188;2023-12-28T05:36:23;215.80;;;202.07;;
9208;SDS011;4639;48.862;9.188;2023-12-28T05:38:49;212.88;;;199.02;;
9208;SDS011;4639;48.862;9.188;2023-12-28T05:41:15;239.88;;;224.93;;
9208;SDS011;4639;48.862;9.188;2023-12-28T05:43:40;232.13;;;217.52;;
9208;SDS011;4639;48.862;9.188;2023-12-28T05:46:06;252.75;;;236.32;;
9208;SDS011;4639;48.862;9.188;2023-12-28T05:48:31;289.90;;;271.25;;
9208;SDS011;4639;48.862;9.188;2023-12-28T05:50:57;292.35;;;273.10;;
9208;SDS011;4639;48.862;9.188;2023-12-28T05:53:23;334.27;;;311.17;;
9208;SDS011;4639;48.862;9.188;2023-12-28T05:55:49;353.45;;;329.35;;
9208;SDS011;4639;48.862;9.188;2023-12-28T05:58:15;342.58;;;319.45;;
9208;SDS011;4639;48.862;9.188;2023-12-28T06:00:41;325.40;;;303.75;;
9208;SDS011;4639;48.862;9.188;2023-12-28T06:03:07;358.00;;;333.20;;
9208;SDS011;4639;48.862;9.188;2023-12-28T06:05:33;365.00;;;339.77;;
9208;SDS011;4639;48.862;9.188;2023-12-28T06:07:58;363.08;;;338.50;;
9208;SDS011;4639;48.862;9.188;2023-12-28T06:10:24;355.70;;;331.90;;
9208;SDS011;4639;48.862;9.188;2023-12-28T06:12:49;357.02;;;334.38;;
9208;SDS011;4639;48.862;9.188;2023-12-28T06:15:15;359.23;;;336.60;;
9208;SDS011;4639;48.862;9.188;2023-12-28T06:17:41;362.70;;;339.60;;
9208;SDS011;4639;48.862;9.188;2023-12-28T06:20:06;375.88;;;352.00;;
9208;SDS011;4639;48.862;9.188;2023-12-28T06:22:33;358.77;;;336.33;;
9208;SDS011;4639;48.862;9.188;2023-12-28T06:25:01;320.98;;;301.60;;
9208;SDS011;4639;48.862;9.188;2023-12-28T06:27:27;304.33;;;286.50;;
9208;SDS011;4639;48.862;9.188;2023-12-28T06:29:52;247.77;;;233.23;;
9208;SDS011;4639;48.862;9.188;2023-12-28T06:32:18;239.35;;;225.32;;
9208;SDS011;4639;48.862;9.188;2023-12-28T06:34:43;200.18;;;188.32;;
9208;SDS011;4639;48.862;9.188;2023-12-28T06:37:09;190.95;;;179.50;;
9208;SDS011;4639;48.862;9.188;2023-12-28T06:39:35;197.90;;;186.15;;
9208;SDS011;4639;48.862;9.188;2023-12-28T06:42:00;186.55;;;175.48;;
9208;SDS011;4639;48.862;9.188;2023-12-28T06:44:26;201.50;;;189.63;;
9208;SDS011;4639;48.862;9.188;2023-12-28T06:46:51;219.15;;;206.02;;
9208;SDS011;4639;48.862;9.188;2023-12-28T06:49:17;339.60;;;314.48;;
9208;SDS011;4639;48.862;9.188;2023-12-28T06:51:42;229.88;;;216.02;;
9208;SDS011;4639;48.862;9.188;2023-12-28T06:54:10;209.30;;;196.77;;
9208;SDS011;4639;48.862;9.188;2023-12-28T06:56:36;223.52;;;210.15;;
9208;SDS011;4639;48.862;9.188;2023-12-28T06:59:01;230.88;;;216.98;;
9208;SDS011;4639;48.862;9.188;2023-12-28T07:01:27;224.55;;;210.27;;
9208;SDS011;4639;48.862;9.188;2023-12-28T07:03:52;229.40;;;214.98;;
9208;SDS011;4639;48.862;9.188;2023-12-28T07:06:18;240.48;;;224.27;;
9208;SDS011;4639;48.862;9.188;2023-12-28T07:08:43;164.80;;;154.07;;
9208;SDS011;4639;48.862;9.188;2023-12-28T07:11:09;173.52;;;162.40;;
9208;SDS011;4639;48.862;9.188;2023-12-28T07:13:36;172.10;;;161.27;;
9208;SDS011;4639;48.862;9.188;2023-12-28T07:16:02;190.38;;;178.80;;
9208;SDS011;4639;48.862;9.188;2023-12-28T07:18:27;244.95;;;229.95;;
9208;SDS011;4639;48.862;9.188;2023-12-28T07:20:53;268.40;;;251.07;;
9208;SDS011;4639;48.862;9.188;2023-12-28T07:23:19;229.40;;;214.13;;
9208;SDS011;4639;48.862;9.188;2023-12-28T07:25:45;174.02;;;162.93;;
9208;SDS011;4639;48.862;9.188;2023-12-28T07:28:10;178.38;;;166.48;;
9208;SDS011;4639;48.862;9.188;2023-12-28T07:30:37;205.15;;;190.82;;
9208;SDS011;4639;48.862;9.188;2023-12-28T07:33:03;219.05;;;203.00;;
9208;SDS011;4639;48.862;9.188;2023-12-28T07:35:29;233.82;;;216.77;;
9208;SDS011;4639;48.862;9.188;2023-12-28T07:37:54;253.90;;;235.25;;
9208;SDS011;4639;48.862;9.188;2023-12-28T07:40:20;248.88;;;231.32;;
9208;SDS011;4639;48.862;9.188;2023-12-28T07:42:46;247.95;;;230.98;;
9208;SDS011;4639;48.862;9.188;2023-12-28T07:45:11;258.70;;;240.85;;
9208;SDS011;4639;48.862;9.188;2023-12-28T07:47:37;241.75;;;225.05;;
9208;SDS011;4639;48.862;9.188;2023-12-28T07:50:02;172.05;;;160.80;;
9208;SDS011;4639;48.862;9.188;2023-12-28T07:52:28;161.18;;;150.77;;
9208;SDS011;4639;48.862;9.188;2023-12-28T07:54:54;151.90;;;142.05;;
9208;SDS011;4639;48.862;9.188;2023-12-28T07:57:20;167.32;;;155.95;;
9208;SDS011;4639;48.862;9.188;2023-12-28T07:59:46;176.18;;;163.52;;
9208;SDS011;4639;48.862;9.188;2023-12-28T08:02:11;178.23;;;165.70;;
9208;SDS011;4639;48.862;9.188;2023-12-28T08:04:37;174.55;;;162.43;;
9208;SDS011;4639;48.862;9.188;2023-12-28T08:07:03;151.57;;;141.35;;
9208;SDS011;4639;48.862;9.188;2023-12-28T08:09:29;176.32;;;164.13;;
9208;SDS011;4639;48.862;9.188;2023-12-28T08:11:55;166.43;;;155.18;;
9208;SDS011;4639;48.862;9.188;2023-12-28T08:14:20;160.43;;;149.43;;
9208;SDS011;4639;48.862;9.188;2023-12-28T08:16:46;153.88;;;143.52;;
9208;SDS011;4639;48.862;9.188;2023-12-28T08:19:12;152.65;;;142.60;;
9208;SDS011;4639;48.862;9.188;2023-12-28T08:21:37;140.70;;;131.50;;
9208;SDS011;4639;48.862;9.188;2023-12-28T08:24:03;144.30;;;134.88;;
9208;SDS011;4639;48.862;9.188;2023-12-28T08:26:29;146.57;;;137.02;;
9208;SDS011;4639;48.862;9.188;2023-12-28T08:28:54;140.45;;;131.07;;
9208;SDS011;4639;48.862;9.188;2023-12-28T08:31:20;140.20;;;130.63;;
9208;SDS011;4639;48.862;9.188;2023-12-28T08:33:46;132.98;;;124.55;;
9208;SDS011;4639;48.862;9.188;2023-12-28T08:36:12;141.60;;;132.73;;
9208;SDS011;4639;48.862;9.188;2023-12-28T08:38:38;131.80;;;123.47;;
9208;SDS011;4639;48.862;9.188;2023-12-28T08:41:03;130.55;;;122.22;;
9208;SDS011;4639;48.862;9.188;2023-12-28T08:43:33;135.40;;;126.63;;
9208;SDS011;4639;48.862;9.188;2023-12-28T08:46:00;141.93;;;132.68;;
9208;SDS011;4639;48.862;9.188;2023-12-28T08:48:25;131.48;;;123.20;;
9208;SDS011;4639;48.862;9.188;2023-12-28T08:50:51;134.48;;;126.13;;
9208;SDS011;4639;48.862;9.188;2023-12-28T08:53:16;128.18;;;119.88;;
9208;SDS011;4639;48.862;9.188;2023-12-28T08:55:42;165.75;;;153.77;;
9208;SDS011;4639;48.862;9.188;2023-12-28T08:58:08;167.48;;;155.85;;
9208;SDS011;4639;48.862;9.188;2023-12-28T09:00:33;230.77;;;213.98;;
9208;SDS011;4639;48.862;9.188;2023-12-28T09:02:59;181.45;;;168.45;;
9208;SDS011;4639;48.862;9.188;2023-12-28T09:05:24;218.93;;;203.02;;
9208;SDS011;4639;48.862;9.188;2023-12-28T09:07:50;209.38;;;194.18;;
9208;SDS011;4639;48.862;9.188;2023-12-28T09:10:15;235.73;;;218.65;;
9208;SDS011;4639;48.862;9.188;2023-12-28T09:12:41;240.30;;;223.27;;
9208;SDS011;4639;48.862;9.188;2023-12-28T09:15:07;248.35;;;230.80;;
9208;SDS011;4639;48.862;9.188;2023-12-28T09:17:33;246.35;;;230.23;;
9208;SDS011;4639;48.862;9.188;2023-12-28T09:19:59;255.00;;;237.95;;
9208;SDS011;4639;48.862;9.188;2023-12-28T09:22:26;242.85;;;225.90;;
9208;SDS011;4639;48.862;9.188;2023-12-28T09:24:52;185.68;;;172.85;;
9208;SDS011;4639;48.862;9.188;2023-12-28T09:27:18;179.27;;;166.80;;
9208;SDS011;4639;48.862;9.188;2023-12-28T09:29:43;136.75;;;127.80;;
9208;SDS011;4639;48.862;9.188;2023-12-28T09:32:09;167.70;;;156.30;;
9208;SDS011;4639;48.862;9.188;2023-12-28T09:34:34;213.85;;;198.68;;
9208;SDS011;4639;48.862;9.188;2023-12-28T09:37:00;218.90;;;203.32;;
9208;SDS011;4639;48.862;9.188;2023-12-28T09:39:26;170.38;;;158.85;;
9208;SDS011;4639;48.862;9.188;2023-12-28T09:42:04;186.65;;;173.93;;
9208;SDS011;4639;48.862;9.188;2023-12-28T09:44:34;142.00;;;132.77;;
9208;SDS011;4639;48.862;9.188;2023-12-28T09:47:03;144.85;;;135.60;;
9208;SDS011;4639;48.862;9.188;2023-12-28T09:49:31;149.68;;;139.90;;
9208;SDS011;4639;48.862;9.188;2023-12-28T09:51:58;150.32;;;140.57;;
9208;SDS011;4639;48.862;9.188;2023-12-28T09:54:25;158.45;;;147.93;;
9208;SDS011;4639;48.862;9.188;2023-12-28T09:56:50;151.10;;;141.07;;
9208;SDS011;4639;48.862;9.188;2023-12-28T09:59:17;139.30;;;130.05;;
9208;SDS011;4639;48.862;9.188;2023-12-28T10:01:45;147.02;;;136.85;;
9208;SDS011;4639;48.862;9.188;2023-12-28T10:04:15;172.30;;;160.98;;
9208;SDS011;4639;48.862;9.188;2023-12-28T10:06:41;181.32;;;169.07;;
9208;SDS011;4639;48.862;9.188;2023-12-28T10:09:07;174.75;;;163.35;;
9208;SDS011;4639;48.862;9.188;2023-12-28T10:11:33;234.43;;;218.68;;
9208;SDS011;4639;48.862;9.188;2023-12-28T10:13:58;216.48;;;202.07;;
9208;SDS011;4639;48.862;9.188;2023-12-28T10:16:24;204.25;;;190.98;;
9208;SDS011;4639;48.862;9.188;2023-12-28T10:18:50;233.02;;;217.38;;
9208;SDS011;4639;48.862;9.188;2023-12-28T10:21:15;257.25;;;240.05;;
9208;SDS011;4639;48.862;9.188;2023-12-28T10:23:41;267.75;;;249.63;;
9208;SDS011;4639;48.862;9.188;2023-12-28T10:26:07;286.08;;;266.63;;
9208;SDS011;4639;48.862;9.188;2023-12-28T10:28:36;297.13;;;277.13;;
9208;SDS011;4639;48.862;9.188;2023-12-28T10:31:05;276.55;;;258.10;;
9208;SDS011;4639;48.862;9.188;2023-12-28T10:33:34;283.38;;;264.17;;
9208;SDS011;4639;48.862;9.188;2023-12-28T10:36:01;290.00;;;270.33;;
9208;SDS011;4639;48.862;9.188;2023-12-28T10:38:36;288.15;;;268.73;;
9208;SDS011;4639;48.862;9.188;2023-12-28T10:41:09;284.35;;;264.90;;
9208;SDS011;4639;48.862;9.188;2023-12-28T10:43:38;293.52;;;273.58;;
9208;SDS011;4639;48.862;9.188;2023-12-28T10:46:27;278.92;;;260.75;;
9208;SDS011;4639;48.862;9.188;2023-12-28T10:48:58;289.30;;;269.45;;
9208;SDS011;4639;48.862;9.188;2023-12-28T10:51:40;303.98;;;282.00;;
9208;SDS011;4639;48.862;9.188;2023-12-28T10:54:18;301.52;;;280.00;;
9208;SDS011;4639;48.862;9.188;2023-12-28T10:56:45;296.98;;;275.13;;
9208;SDS011;4639;48.862;9.188;2023-12-28T10:59:28;301.50;;;280.75;;
9208;SDS011;4639;48.862;9.188;2023-12-28T11:01:57;261.27;;;243.73;;
9208;SDS011;4639;48.862;9.188;2023-12-28T11:07:14;184.23;;;172.60;;
9208;SDS011;4639;48.862;9.188;2023-12-28T11:09:42;219.82;;;205.80;;
9208;SDS011;4639;48.862;9.188;2023-12-28T11:12:08;287.52;;;265.98;;
9208;SDS011;4639;48.862;9.188;2023-12-28T11:14:40;250.50;;;233.05;;
9208;SDS011;4639;48.862;9.188;2023-12-28T11:17:06;390.45;;;358.45;;
9208;SDS011;4639;48.862;9.188;2023-12-28T11:19:34;341.60;;;316.35;;
9208;SDS011;4639;48.862;9.188;2023-12-28T11:22:02;259.20;;;241.90;;
9208;SDS011;4639;48.862;9.188;2023-12-28T11:24:28;279.40;;;260.15;;
9208;SDS011;4639;48.862;9.188;2023-12-28T11:26:55;243.98;;;227.50;;
9208;SDS011;4639;48.862;9.188;2023-12-28T11:29:22;242.32;;;226.00;;
9208;SDS011;4639;48.862;9.188;2023-12-28T11:31:54;211.63;;;197.82;;
9208;SDS011;4639;48.862;9.188;2023-12-28T11:34:26;202.80;;;189.35;;
9208;SDS011;4639;48.862;9.188;2023-12-28T11:36:54;221.02;;;206.45;;
9208;SDS011;4639;48.862;9.188;2023-12-28T11:42:03;242.30;;;225.45;;
9208;SDS011;4639;48.862;9.188;2023-12-28T11:44:39;180.52;;;169.15;;
9208;SDS011;4639;48.862;9.188;2023-12-28T11:47:20;171.93;;;160.75;;
9208;SDS011;4639;48.862;9.188;2023-12-28T11:49:47;217.00;;;202.35;;
9208;SDS011;4639;48.862;9.188;2023-12-28T11:52:31;182.30;;;170.68;;
9208;SDS011;4639;48.862;9.188;2023-12-28T11:54:57;180.13;;;168.45;;
9208;SDS011;4639;48.862;9.188;2023-12-28T11:57:27;189.32;;;176.43;;
9208;SDS011;4639;48.862;9.188;2023-12-28T11:59:53;178.07;;;166.23;;
9208;SDS011;4639;48.862;9.188;2023-12-28T12:02:23;175.40;;;164.05;;
9208;SDS011;4639;48.862;9.188;2023-12-28T12:04:49;187.57;;;175.35;;
9208;SDS011;4639;48.862;9.188;2023-12-28T12:07:14;194.38;;;181.25;;
9208;SDS011;4639;48.862;9.188;2023-12-28T12:09:40;170.77;;;159.80;;
9208;SDS011;4639;48.862;9.188;2023-12-28T12:12:06;153.57;;;143.48;;
9208;SDS011;4639;48.862;9.188;2023-12-28T12:14:32;163.13;;;152.38;;
9208;SDS011;4639;48.862;9.188;2023-12-28T12:17:00;160.15;;;149.77;;
9208;SDS011;4639;48.862;9.188;2023-12-28T12:19:26;176.68;;;164.80;;
9208;SDS011;4639;48.862;9.188;2023-12-28T12:21:53;164.10;;;153.38;;
9208;SDS011;4639;48.862;9.188;2023-12-28T12:24:19;202.75;;;189.05;;
9208;SDS011;4639;48.862;9.188;2023-12-28T12:26:45;218.45;;;203.68;;
9208;SDS011;4639;48.862;9.188;2023-12-28T12:29:11;243.60;;;226.27;;
9208;SDS011;4639;48.862;9.188;2023-12-28T12:31:39;374.08;;;344.85;;
9208;SDS011;4639;48.862;9.188;2023-12-28T12:34:06;246.93;;;229.80;;
9208;SDS011;4639;48.862;9.188;2023-12-28T12:36:33;253.52;;;236.15;;
9208;SDS011;4639;48.862;9.188;2023-12-28T12:38:59;252.07;;;234.35;;
9208;SDS011;4639;48.862;9.188;2023-12-28T12:41:25;249.48;;;232.00;;
9208;SDS011;4639;48.862;9.188;2023-12-28T12:43:51;253.98;;;236.18;;
9208;SDS011;4639;48.862;9.188;2023-12-28T12:46:20;255.77;;;237.90;;
9208;SDS011;4639;48.862;9.188;2023-12-28T12:49:07;254.63;;;237.18;;
9208;SDS011;4639;48.862;9.188;2023-12-28T12:51:32;204.85;;;190.90;;
9208;SDS011;4639;48.862;9.188;2023-12-28T12:53:58;273.45;;;254.55;;
9208;SDS011;4639;48.862;9.188;2023-12-28T12:56:27;271.75;;;253.40;;
9208;SDS011;4639;48.862;9.188;2023-12-28T12:58:53;313.83;;;290.75;;
9208;SDS011;4639;48.862;9.188;2023-12-28T13:01:19;258.38;;;240.90;;
9208;SDS011;4639;48.862;9.188;2023-12-28T13:03:45;282.30;;;263.13;;
9208;SDS011;4639;48.862;9.188;2023-12-28T13:06:11;291.73;;;271.95;;
9208;SDS011;4639;48.862;9.188;2023-12-28T13:08:37;290.67;;;270.98;;
9208;SDS011;4639;48.862;9.188;2023-12-28T13:11:02;296.98;;;276.55;;
9208;SDS011;4639;48.862;9.188;2023-12-28T13:13:28;297.83;;;277.55;;
9208;SDS011;4639;48.862;9.188;2023-12-28T13:15:54;297.60;;;277.48;;
9208;SDS011;4639;48.862;9.188;2023-12-28T13:18:19;293.75;;;273.60;;
9208;SDS011;4639;48.862;9.188;2023-12-28T13:20:45;344.35;;;318.70;;
9208;SDS011;4639;48.862;9.188;2023-12-28T13:23:11;309.15;;;288.17;;
9208;SDS011;4639;48.862;9.188;2023-12-28T13:25:37;281.80;;;262.73;;
9208;SDS011;4639;48.862;9.188;2023-12-28T13:28:02;304.85;;;283.98;;
9208;SDS011;4639;48.862;9.188;2023-12-28T13:30:28;294.63;;;274.80;;
9208;SDS011;4639;48.862;9.188;2023-12-28T13:32:57;298.92;;;279.17;;
9208;SDS011;4639;48.862;9.188;2023-12-28T13:35:22;296.58;;;276.15;;
9208;SDS011;4639;48.862;9.188;2023-12-28T13:37:48;323.00;;;300.48;;
9208;SDS011;4639;48.862;9.188;2023-12-28T13:40:14;306.30;;;285.63;;
9208;SDS011;4639;48.862;9.188;2023-12-28T13:42:42;328.23;;;305.52;;
9208;SDS011;4639;48.862;9.188;2023-12-28T13:45:08;307.27;;;286.10;;
9208;SDS011;4639;48.862;9.188;2023-12-28T13:47:33;305.27;;;284.38;;
9208;SDS011;4639;48.862;9.188;2023-12-28T13:49:59;349.77;;;324.52;;
9208;SDS011;4639;48.862;9.188;2023-12-28T13:52:24;300.40;;;279.75;;
9208;SDS011;4639;48.862;9.188;2023-12-28T13:54:50;308.17;;;286.77;;
9208;SDS011;4639;48.862;9.188;2023-12-28T13:57:16;321.40;;;299.08;;
9208;SDS011;4639;48.862;9.188;2023-12-28T13:59:41;240.52;;;223.90;;
9208;SDS011;4639;48.862;9.188;2023-12-28T14:02:07;211.65;;;197.52;;
9208;SDS011;4639;48.862;9.188;2023-12-28T14:04:32;209.88;;;196.00;;
9208;SDS011;4639;48.862;9.188;2023-12-28T14:06:58;215.02;;;200.98;;
9208;SDS011;4639;48.862;9.188;2023-12-28T14:09:23;217.23;;;202.52;;
9208;SDS011;4639;48.862;9.188;2023-12-28T14:11:49;217.10;;;202.32;;
9208;SDS011;4639;48.862;9.188;2023-12-28T14:14:15;217.43;;;202.38;;
9208;SDS011;4639;48.862;9.188;2023-12-28T14:16:40;208.35;;;194.55;;
9208;SDS011;4639;48.862;9.188;2023-12-28T14:19:06;265.50;;;242.27;;
9208;SDS011;4639;48.862;9.188;2023-12-28T14:21:38;247.27;;;228.43;;
9208;SDS011;4639;48.862;9.188;2023-12-28T14:24:04;243.23;;;224.13;;